Terminal Aerodrome Forecast
Issued by NWS

Home | Current Version | Previous Version | Text Only | Print | Product List | Glossary On
Versions: 1 2 3 4 5 6 7 8 9 10 11 12 13 14 15 16 17 18 19 20 21
000
FTUS43 KIND 231700
TAFBMG
TAF
KBMG 231727Z 2318/2418 16005KT P6SM VCSH SCT020 BKN250
     FM232100 26005KT P6SM VCTS SCT025CB BKN250
     FM240400 00000KT 4SM BR SCT080 BKN250
     FM241400 09005KT P6SM SCT020 BKN250=

USA.gov is the U.S. government's official web portal to all federal, state and local government web resources and services.